createdAt,value
2022-12-26T00:01:32.261Z,15.30
2022-12-26T00:03:34.265Z,15.40
2022-12-26T00:05:37.036Z,15.30
2022-12-26T00:07:38.688Z,15.40
2022-12-26T00:09:40.440Z,15.30
2022-12-26T00:11:42.100Z,15.30
2022-12-26T00:13:47.600Z,15.30
2022-12-26T00:15:49.465Z,15.30
2022-12-26T00:17:52.467Z,15.30
2022-12-26T00:19:54.163Z,15.30
2022-12-26T00:21:57.502Z,15.30
2022-12-26T00:23:59.584Z,15.40
2022-12-26T00:26:09.479Z,15.40
2022-12-26T00:28:11.189Z,15.30
2022-12-26T00:30:13.552Z,15.40
2022-12-26T00:32:15.182Z,15.40
2022-12-26T00:34:16.894Z,15.40
2022-12-26T00:36:29.667Z,15.40
2022-12-26T00:38:31.650Z,15.40
2022-12-26T00:40:33.481Z,15.40
2022-12-26T00:42:35.557Z,15.40
2022-12-26T00:44:37.232Z,15.40
2022-12-26T00:46:38.866Z,15.40
2022-12-26T00:48:40.561Z,15.50
2022-12-26T00:50:42.315Z,15.50
2022-12-26T00:52:43.932Z,15.40
2022-12-26T00:54:45.799Z,15.50
2022-12-26T00:56:47.533Z,15.50
2022-12-26T00:58:49.212Z,15.50
2022-12-26T01:00:51.024Z,15.50
2022-12-26T01:02:52.957Z,15.50
2022-12-26T01:04:54.624Z,15.50
2022-12-26T01:06:56.237Z,15.50
2022-12-26T01:08:59.455Z,15.50
2022-12-26T01:11:09.208Z,15.50
2022-12-26T01:13:11.049Z,15.60
2022-12-26T01:15:12.755Z,15.60
2022-12-26T01:17:14.514Z,15.60
2022-12-26T01:19:16.231Z,15.60
2022-12-26T01:21:17.906Z,15.60
2022-12-26T01:23:19.915Z,15.60
2022-12-26T01:25:22.119Z,15.60
2022-12-26T01:27:24.444Z,15.60
2022-12-26T01:29:26.319Z,15.60
2022-12-26T01:31:28.457Z,15.60
2022-12-26T01:33:31.116Z,15.60
2022-12-26T01:35:32.973Z,15.60
2022-12-26T01:37:34.590Z,15.70
2022-12-26T01:39:36.306Z,15.60
2022-12-26T01:41:37.976Z,15.60
2022-12-26T01:43:49.743Z,15.60
2022-12-26T01:45:52.285Z,15.60
2022-12-26T01:48:01.853Z,15.60
2022-12-26T01:50:04.668Z,15.70
2022-12-26T01:52:07.951Z,15.70
2022-12-26T01:54:40.459Z,15.60
2022-12-26T01:56:36.421Z,15.70
2022-12-26T01:58:41.917Z,15.60
2022-12-26T02:00:43.834Z,15.60
2022-12-26T02:03:04.523Z,15.60
2022-12-26T02:05:24.859Z,15.60
2022-12-26T02:07:26.722Z,15.60
2022-12-26T02:09:28.357Z,15.60
2022-12-26T02:11:42.243Z,15.60
2022-12-26T02:13:43.907Z,15.60
2022-12-26T02:15:45.729Z,15.70
2022-12-26T02:17:47.368Z,15.70
2022-12-26T02:20:10.743Z,15.60
2022-12-26T02:22:12.345Z,15.70
2022-12-26T02:24:13.964Z,15.70
2022-12-26T02:26:15.514Z,15.70
2022-12-26T02:28:35.183Z,15.70
2022-12-26T02:30:41.583Z,15.60
2022-12-26T02:33:01.731Z,15.60
2022-12-26T02:35:15.723Z,15.70
2022-12-26T02:37:37.601Z,15.60
2022-12-26T02:39:46.410Z,15.60
2022-12-26T02:41:56.044Z,15.70
2022-12-26T02:44:55.251Z,15.70
2022-12-26T02:47:12.763Z,15.70
2022-12-26T02:49:17.167Z,15.60
2022-12-26T02:51:51.653Z,15.70
2022-12-26T02:54:19.339Z,15.70
2022-12-26T02:56:49.672Z,15.70
2022-12-26T02:59:17.431Z,15.70
2022-12-26T03:01:43.313Z,15.70
2022-12-26T03:04:05.822Z,15.70
2022-12-26T03:06:33.812Z,15.70
2022-12-26T03:08:59.948Z,15.70
2022-12-26T03:11:20.956Z,15.70
2022-12-26T03:13:26.175Z,15.70
2022-12-26T03:15:29.426Z,15.70
2022-12-26T03:17:31.060Z,15.70
2022-12-26T03:19:33.192Z,15.70
2022-12-26T03:21:38.503Z,15.70
2022-12-26T03:23:42.910Z,15.70
2022-12-26T03:26:04.927Z,15.70
2022-12-26T03:28:06.596Z,15.70
2022-12-26T03:30:27.431Z,15.70
2022-12-26T03:32:41.377Z,15.70
2022-12-26T03:34:43.733Z,15.70
2022-12-26T03:37:00.485Z,15.70
2022-12-26T03:39:11.045Z,15.70
2022-12-26T03:41:37.063Z,15.70
2022-12-26T03:44:06.902Z,15.60
2022-12-26T03:46:43.009Z,15.70
2022-12-26T03:49:12.363Z,15.70
2022-12-26T03:51:37.897Z,15.60
2022-12-26T03:54:08.002Z,15.70
2022-12-26T03:56:36.740Z,15.60
2022-12-26T03:59:04.158Z,15.60
2022-12-26T04:01:26.963Z,15.60
2022-12-26T04:03:49.005Z,15.70
2022-12-26T04:06:11.145Z,15.60
2022-12-26T04:08:39.946Z,15.70
2022-12-26T04:11:02.825Z,15.70
2022-12-26T04:13:24.815Z,15.60
2022-12-26T04:15:52.042Z,15.70
2022-12-26T04:18:16.105Z,15.70
2022-12-26T04:20:24.761Z,15.70
2022-12-26T04:23:00.589Z,15.70
2022-12-26T04:25:50.761Z,15.70
2022-12-26T04:28:08.421Z,15.70
2022-12-26T04:30:29.037Z,15.70
2022-12-26T04:32:55.504Z,15.70
2022-12-26T04:35:22.669Z,15.70
2022-12-26T04:37:44.573Z,15.70
2022-12-26T04:40:07.872Z,15.70
2022-12-26T04:42:28.458Z,15.70
2022-12-26T04:44:30.453Z,15.70
2022-12-26T04:46:34.340Z,15.70
2022-12-26T04:49:00.536Z,15.80
2022-12-26T04:51:02.109Z,15.80
2022-12-26T04:53:03.924Z,15.80
2022-12-26T04:55:05.742Z,15.70
2022-12-26T04:57:07.649Z,15.80
2022-12-26T04:59:09.291Z,15.70
2022-12-26T05:01:29.590Z,15.80
2022-12-26T05:03:50.328Z,15.80
2022-12-26T05:06:14.955Z,15.80
2022-12-26T05:08:43.365Z,15.90
2022-12-26T05:10:45.077Z,15.80
2022-12-26T05:12:46.872Z,15.80
2022-12-26T05:14:48.545Z,15.90
2022-12-26T05:17:08.925Z,15.80
2022-12-26T05:19:29.539Z,15.80
2022-12-26T05:21:50.234Z,15.90
2022-12-26T05:24:10.488Z,15.80
2022-12-26T05:26:41.620Z,15.80
2022-12-26T05:28:43.592Z,15.80
2022-12-26T05:30:45.270Z,15.80
2022-12-26T05:33:05.789Z,15.80
2022-12-26T05:35:07.652Z,15.80
2022-12-26T05:37:09.403Z,15.80
2022-12-26T05:39:11.184Z,15.80
2022-12-26T05:41:12.759Z,15.80
2022-12-26T05:43:14.407Z,15.80
2022-12-26T05:45:16.077Z,15.90
2022-12-26T05:47:17.680Z,15.80
2022-12-26T05:49:19.304Z,15.80
2022-12-26T05:51:21.023Z,15.80
2022-12-26T05:53:23.822Z,15.80
2022-12-26T05:55:25.718Z,15.80
2022-12-26T05:57:27.464Z,15.80
2022-12-26T05:59:29.327Z,15.80
2022-12-26T06:01:31.240Z,15.80
2022-12-26T06:03:33.862Z,15.80
2022-12-26T06:05:35.584Z,15.80
2022-12-26T06:07:37.247Z,15.80
2022-12-26T06:09:39.342Z,15.80
2022-12-26T06:11:46.918Z,15.80
2022-12-26T06:13:50.494Z,15.80
2022-12-26T06:15:52.233Z,15.80
2022-12-26T06:17:54.502Z,15.70
2022-12-26T06:19:56.107Z,15.80
2022-12-26T06:21:57.708Z,15.80
2022-12-26T06:23:59.362Z,15.70
2022-12-26T06:26:01.122Z,15.70
2022-12-26T06:28:02.816Z,15.70
2022-12-26T06:30:04.808Z,15.70
2022-12-26T06:32:06.434Z,15.70
2022-12-26T06:34:10.692Z,15.70
2022-12-26T06:36:14.039Z,15.70
2022-12-26T06:38:15.652Z,15.70
2022-12-26T06:40:17.302Z,15.70
2022-12-26T06:42:18.958Z,15.70
2022-12-26T06:44:20.672Z,15.70
2022-12-26T06:46:23.661Z,15.70
2022-12-26T06:48:25.888Z,15.70
2022-12-26T06:50:27.897Z,15.70
2022-12-26T06:52:29.564Z,15.60
2022-12-26T06:54:31.196Z,15.60
2022-12-26T06:56:34.178Z,15.60
2022-12-26T06:58:36.245Z,15.70
2022-12-26T07:00:37.966Z,15.60
2022-12-26T07:02:39.719Z,15.60
2022-12-26T07:04:41.406Z,15.60
2022-12-26T07:06:43.033Z,15.60
2022-12-26T07:08:44.686Z,15.60
2022-12-26T07:10:46.308Z,15.60
2022-12-26T07:12:48.381Z,15.60
2022-12-26T07:14:50.059Z,15.60
2022-12-26T07:16:51.685Z,15.60
2022-12-26T07:18:54.194Z,15.60
2022-12-26T07:20:55.883Z,15.50
2022-12-26T07:22:57.607Z,15.60
2022-12-26T07:24:59.302Z,15.50
2022-12-26T07:27:00.971Z,15.50
2022-12-26T07:29:02.658Z,15.50
2022-12-26T07:31:04.628Z,15.50
2022-12-26T07:33:06.270Z,15.50
2022-12-26T07:35:08.110Z,15.50
2022-12-26T07:37:09.766Z,15.50
2022-12-26T07:39:13.255Z,15.50
2022-12-26T07:41:50.639Z,15.50
2022-12-26T07:43:52.548Z,15.40
2022-12-26T07:45:57.565Z,15.40
2022-12-26T07:47:59.273Z,15.40
2022-12-26T07:50:00.861Z,15.40
2022-12-26T07:52:03.267Z,15.40
2022-12-26T07:54:10.740Z,15.40
2022-12-26T07:56:13.079Z,15.40
2022-12-26T07:58:14.702Z,15.40
2022-12-26T08:00:16.890Z,15.40
2022-12-26T08:02:18.669Z,15.40
2022-12-26T08:04:20.450Z,15.40
2022-12-26T08:06:22.121Z,15.40
2022-12-26T08:08:23.761Z,15.40
2022-12-26T08:10:25.459Z,15.30
2022-12-26T08:12:27.135Z,15.30
2022-12-26T08:14:29.241Z,15.40
2022-12-26T08:16:31.421Z,15.30
2022-12-26T08:18:33.650Z,15.40
2022-12-26T08:20:36.548Z,15.40
2022-12-26T08:22:38.220Z,15.40
2022-12-26T08:24:39.838Z,15.30
2022-12-26T08:26:41.627Z,15.30
2022-12-26T08:28:43.243Z,15.30
2022-12-26T08:30:45.500Z,15.30
2022-12-26T08:32:47.190Z,15.30
2022-12-26T08:34:48.926Z,15.20
2022-12-26T08:36:51.774Z,15.20
2022-12-26T08:38:53.656Z,15.20
2022-12-26T08:40:56.206Z,15.20
2022-12-26T08:43:21.338Z,15.20
2022-12-26T08:45:19.792Z,15.20
2022-12-26T08:47:21.960Z,15.10
2022-12-26T08:49:23.599Z,15.20
2022-12-26T08:51:25.220Z,15.20
2022-12-26T08:53:28.952Z,15.20
2022-12-26T08:55:30.581Z,15.20
2022-12-26T08:57:32.217Z,15.10
2022-12-26T08:59:33.886Z,15.10
2022-12-26T09:01:35.582Z,15.10
2022-12-26T09:03:37.666Z,15.10
2022-12-26T09:05:39.354Z,15.10
2022-12-26T09:07:41.046Z,15.10
2022-12-26T09:09:45.040Z,15.10
2022-12-26T09:11:46.660Z,15.00
2022-12-26T09:13:48.746Z,15.10
2022-12-26T09:15:50.421Z,15.00
2022-12-26T09:17:52.083Z,15.00
2022-12-26T09:19:53.833Z,15.10
2022-12-26T09:22:15.790Z,15.00
2022-12-26T09:24:18.225Z,15.00
2022-12-26T09:26:20.171Z,15.10
2022-12-26T09:28:22.051Z,15.00
2022-12-26T09:30:23.780Z,15.00
2022-12-26T09:32:25.508Z,15.00
2022-12-26T09:34:27.165Z,15.00
2022-12-26T09:36:30.260Z,15.00
2022-12-26T09:38:31.960Z,15.00
2022-12-26T09:40:42.856Z,15.00
2022-12-26T09:42:52.816Z,15.00
2022-12-26T09:45:04.580Z,15.00
2022-12-26T09:47:18.304Z,15.00
2022-12-26T09:49:21.177Z,15.00
2022-12-26T09:51:23.619Z,15.00
2022-12-26T09:53:25.221Z,15.00
2022-12-26T09:55:38.993Z,15.00
2022-12-26T09:57:43.579Z,15.00
2022-12-26T10:00:05.510Z,15.00
2022-12-26T10:02:18.457Z,15.00
2022-12-26T10:04:28.960Z,15.10
2022-12-26T10:06:37.956Z,15.00
2022-12-26T10:08:50.522Z,15.00
2022-12-26T10:11:01.349Z,15.00
2022-12-26T10:13:11.500Z,15.00
2022-12-26T10:15:19.559Z,15.00
2022-12-26T10:17:40.630Z,15.00
2022-12-26T10:19:42.928Z,15.00
2022-12-26T10:22:03.849Z,15.00
2022-12-26T10:24:16.389Z,15.00
2022-12-26T10:26:18.038Z,14.90
2022-12-26T10:28:34.246Z,15.00
2022-12-26T10:30:41.680Z,15.00
2022-12-26T10:32:45.474Z,14.90
2022-12-26T10:34:48.448Z,15.00
2022-12-26T10:36:50.200Z,14.90
2022-12-26T10:38:53.234Z,14.90
2022-12-26T10:40:56.539Z,14.90
2022-12-26T10:43:00.399Z,14.90
2022-12-26T10:45:12.295Z,14.90
2022-12-26T10:47:13.890Z,14.90
2022-12-26T10:49:18.102Z,14.90
2022-12-26T10:51:19.884Z,14.90
2022-12-26T10:53:21.626Z,14.90
2022-12-26T10:55:29.719Z,14.80
2022-12-26T10:57:35.689Z,14.90
2022-12-26T10:59:43.398Z,14.80
2022-12-26T11:01:47.957Z,14.80
2022-12-26T11:03:56.755Z,14.80
2022-12-26T11:06:08.408Z,14.80
2022-12-26T11:08:17.191Z,14.80
2022-12-26T11:10:20.810Z,14.80
2022-12-26T11:12:42.725Z,14.80
2022-12-26T11:14:45.661Z,14.80
2022-12-26T11:16:48.772Z,14.70
2022-12-26T11:18:52.095Z,14.70
2022-12-26T11:20:54.091Z,14.70
2022-12-26T11:23:12.512Z,14.80
2022-12-26T11:25:23.379Z,14.70
2022-12-26T11:27:25.087Z,14.70
2022-12-26T11:29:27.073Z,14.70
2022-12-26T11:31:30.904Z,14.70
2022-12-26T11:33:35.611Z,14.70
2022-12-26T11:35:38.091Z,14.70
2022-12-26T11:37:44.408Z,14.70
2022-12-26T11:39:49.809Z,14.70
2022-12-26T11:41:52.101Z,14.70
2022-12-26T11:43:54.424Z,14.70
2022-12-26T11:45:56.384Z,14.70
2022-12-26T11:48:00.359Z,14.60
2022-12-26T11:50:10.099Z,14.70
2022-12-26T11:52:30.373Z,14.70
2022-12-26T11:54:36.602Z,14.70
2022-12-26T11:56:41.703Z,14.70
2022-12-26T11:59:09.166Z,14.70
2022-12-26T12:01:13.179Z,14.70
2022-12-26T12:03:21.092Z,14.70
2022-12-26T12:05:39.080Z,14.70
2022-12-26T12:07:40.755Z,14.70
2022-12-26T12:09:52.697Z,14.70
2022-12-26T12:11:57.426Z,14.70
2022-12-26T12:14:02.223Z,14.70
2022-12-26T12:16:13.121Z,14.70
2022-12-26T12:18:33.235Z,14.70
2022-12-26T12:20:53.924Z,14.70
2022-12-26T12:23:07.812Z,14.70
2022-12-26T12:25:16.471Z,14.60
2022-12-26T12:27:18.151Z,14.70
2022-12-26T12:29:38.708Z,14.70
2022-12-26T12:31:43.407Z,14.70
2022-12-26T12:33:51.385Z,14.70
2022-12-26T12:36:08.379Z,14.70
2022-12-26T12:38:28.564Z,14.70
2022-12-26T12:40:36.105Z,14.70
2022-12-26T12:42:37.737Z,14.70
2022-12-26T12:45:02.428Z,14.70
2022-12-26T12:47:11.026Z,14.70
2022-12-26T12:49:23.868Z,14.70
2022-12-26T12:51:28.398Z,14.70
2022-12-26T12:53:45.147Z,14.70
2022-12-26T12:56:05.624Z,14.70
2022-12-26T12:58:25.857Z,14.70
2022-12-26T13:00:41.967Z,14.70
2022-12-26T13:02:43.938Z,14.70
2022-12-26T13:04:47.812Z,14.70
2022-12-26T13:06:52.121Z,14.70
2022-12-26T13:08:56.057Z,14.70
2022-12-26T13:11:00.576Z,14.70
2022-12-26T13:13:08.439Z,14.70
2022-12-26T13:15:23.559Z,14.70
2022-12-26T13:17:27.989Z,14.70
2022-12-26T13:19:51.724Z,14.70
2022-12-26T13:21:56.630Z,14.80
2022-12-26T13:24:23.330Z,14.80
2022-12-26T13:26:34.764Z,14.80
2022-12-26T13:28:39.537Z,14.80
2022-12-26T13:30:42.118Z,14.80
2022-12-26T13:32:46.816Z,14.80
2022-12-26T13:34:49.002Z,14.80
2022-12-26T13:36:52.529Z,14.80
2022-12-26T13:38:56.884Z,14.80
2022-12-26T13:41:20.796Z,14.80
2022-12-26T13:43:44.421Z,14.80
2022-12-26T13:45:51.162Z,14.80
2022-12-26T13:47:52.811Z,14.80
2022-12-26T13:49:54.522Z,14.80
2022-12-26T13:51:57.912Z,14.80
2022-12-26T13:54:03.137Z,14.80
2022-12-26T13:56:12.611Z,14.80
2022-12-26T13:58:29.886Z,14.80
2022-12-26T14:00:51.969Z,14.80
2022-12-26T14:03:19.097Z,14.80
2022-12-26T14:05:24.311Z,14.80
2022-12-26T14:07:28.921Z,14.80
2022-12-26T14:09:45.952Z,14.80
2022-12-26T14:12:06.296Z,14.80
2022-12-26T14:14:07.986Z,14.80
2022-12-26T14:16:23.943Z,14.90
2022-12-26T14:18:36.518Z,14.70
2022-12-26T14:20:56.728Z,14.70
2022-12-26T14:23:10.513Z,14.70
2022-12-26T14:25:21.636Z,14.70
2022-12-26T14:27:35.620Z,14.80
2022-12-26T14:29:43.437Z,14.80
2022-12-26T14:32:03.459Z,14.80
2022-12-26T14:34:25.363Z,14.70
2022-12-26T14:36:30.030Z,14.70
2022-12-26T14:38:31.702Z,14.70
2022-12-26T14:40:35.432Z,14.70
2022-12-26T14:43:10.929Z,14.70
2022-12-26T14:45:32.648Z,14.70
2022-12-26T14:47:45.559Z,14.70
2022-12-26T14:49:47.393Z,14.70
2022-12-26T14:51:49.516Z,14.70
2022-12-26T14:54:11.509Z,14.70
2022-12-26T14:56:19.473Z,14.70
2022-12-26T14:58:21.145Z,14.70
2022-12-26T15:00:22.840Z,14.70
2022-12-26T15:02:24.559Z,14.70
2022-12-26T15:04:41.939Z,14.70
2022-12-26T15:07:05.942Z,14.70
2022-12-26T15:09:11.205Z,14.70
2022-12-26T15:11:33.333Z,14.80
2022-12-26T15:13:50.209Z,14.80
2022-12-26T15:16:02.653Z,14.80
2022-12-26T15:18:13.689Z,14.80
2022-12-26T15:20:18.407Z,14.80
2022-12-26T15:22:23.152Z,14.80
2022-12-26T15:25:08.215Z,14.80
2022-12-26T15:26:58.579Z,14.80
2022-12-26T15:29:03.276Z,14.80
2022-12-26T15:31:23.423Z,14.80
2022-12-26T15:33:46.563Z,14.80
2022-12-26T15:36:01.132Z,14.80
2022-12-26T15:38:10.750Z,14.80
2022-12-26T15:40:15.310Z,14.80
2022-12-26T15:42:36.575Z,14.90
2022-12-26T15:44:49.355Z,14.80
2022-12-26T15:47:01.886Z,14.80
2022-12-26T15:49:06.534Z,14.80
2022-12-26T15:51:11.151Z,14.80
2022-12-26T15:53:18.939Z,14.80
2022-12-26T15:55:39.474Z,14.80
2022-12-26T15:58:01.601Z,14.80
2022-12-26T16:00:15.669Z,14.80
2022-12-26T16:02:26.982Z,14.80
2022-12-26T16:04:40.607Z,14.80
2022-12-26T16:07:02.673Z,14.80
2022-12-26T16:09:13.565Z,14.80
2022-12-26T16:11:15.286Z,14.70
2022-12-26T16:13:22.756Z,14.70
2022-12-26T16:15:25.260Z,14.70
2022-12-26T16:17:27.989Z,14.70
2022-12-26T16:19:29.689Z,14.70
2022-12-26T16:21:50.185Z,14.60
2022-12-26T16:23:53.190Z,14.60
2022-12-26T16:25:55.976Z,14.60
2022-12-26T16:27:59.228Z,14.60
2022-12-26T16:30:11.371Z,14.60
2022-12-26T16:32:16.426Z,14.60
2022-12-26T16:34:19.244Z,14.60
2022-12-26T16:36:22.230Z,14.60
2022-12-26T16:38:26.574Z,14.50
2022-12-26T16:40:29.893Z,14.70
2022-12-26T16:42:32.208Z,14.50
2022-12-26T16:44:33.874Z,14.50
2022-12-26T16:46:35.629Z,14.50
2022-12-26T16:48:38.080Z,14.50
2022-12-26T16:50:46.027Z,14.50
2022-12-26T16:52:47.795Z,14.50
2022-12-26T16:54:49.450Z,14.50
2022-12-26T16:56:55.842Z,14.50
2022-12-26T16:59:02.732Z,14.40
2022-12-26T17:01:10.343Z,14.40
2022-12-26T17:03:24.636Z,14.50
2022-12-26T17:05:31.366Z,14.50
2022-12-26T17:07:34.920Z,14.40
2022-12-26T17:09:44.131Z,14.50
2022-12-26T17:11:56.215Z,14.40
2022-12-26T17:13:58.748Z,14.40
2022-12-26T17:16:01.656Z,14.40
2022-12-26T17:18:22.407Z,14.30
2022-12-26T17:20:24.492Z,14.30
2022-12-26T17:22:29.227Z,14.30
2022-12-26T17:24:30.970Z,14.30
2022-12-26T17:26:32.888Z,14.30
2022-12-26T17:28:37.155Z,14.30
2022-12-26T17:30:40.281Z,14.20
2022-12-26T17:32:45.723Z,14.20
2022-12-26T17:34:47.664Z,14.20
2022-12-26T17:39:21.733Z,14.20
2022-12-26T17:41:23.368Z,14.10
2022-12-26T17:43:29.309Z,14.10
2022-12-26T17:45:31.141Z,14.10
2022-12-26T17:47:32.793Z,14.10
2022-12-26T17:49:34.585Z,14.10
2022-12-26T17:51:36.274Z,14.10
2022-12-26T17:53:40.411Z,14.10
2022-12-26T17:55:42.068Z,14.10
2022-12-26T17:57:43.802Z,14.10
2022-12-26T17:59:55.676Z,14.10
2022-12-26T18:01:57.553Z,14.00
2022-12-26T18:04:08.616Z,14.00
2022-12-26T18:06:21.039Z,14.00
2022-12-26T18:08:34.030Z,14.00
2022-12-26T18:10:36.331Z,14.00
2022-12-26T18:12:38.045Z,13.90
2022-12-26T18:14:39.795Z,13.90
2022-12-26T18:16:41.512Z,13.90
2022-12-26T18:18:44.348Z,13.90
2022-12-26T18:20:46.246Z,13.80
2022-12-26T18:22:47.877Z,13.80
2022-12-26T18:24:49.634Z,13.80
2022-12-26T18:26:51.264Z,13.80
2022-12-26T18:28:53.323Z,13.80
2022-12-26T18:30:56.969Z,13.80
2022-12-26T18:32:58.821Z,13.80
2022-12-26T18:35:00.662Z,13.80
2022-12-26T18:37:02.482Z,13.80
2022-12-26T18:39:04.990Z,13.70
2022-12-26T18:41:07.274Z,13.70
2022-12-26T18:43:09.302Z,13.70
2022-12-26T18:45:10.960Z,13.70
2022-12-26T18:47:13.568Z,13.70
2022-12-26T18:49:17.098Z,13.80
2022-12-26T18:51:19.696Z,13.70
2022-12-26T18:53:21.442Z,13.70
2022-12-26T18:55:23.891Z,13.70
2022-12-26T18:57:25.471Z,13.70
2022-12-26T18:59:27.160Z,13.70
2022-12-26T19:01:28.922Z,13.70
2022-12-26T19:03:30.787Z,13.80
2022-12-26T19:05:33.844Z,13.80
2022-12-26T19:07:35.574Z,13.60
2022-12-26T19:09:37.288Z,13.60
2022-12-26T19:11:39.453Z,13.70
2022-12-26T19:13:41.631Z,13.60
2022-12-26T19:15:47.003Z,13.60
2022-12-26T19:17:48.966Z,13.60
2022-12-26T19:19:50.740Z,13.60
2022-12-26T19:21:52.751Z,13.60
2022-12-26T19:23:54.429Z,13.60
2022-12-26T19:25:58.518Z,13.60
2022-12-26T19:28:00.275Z,13.60
2022-12-26T19:30:01.933Z,13.70
2022-12-26T19:32:03.765Z,13.60
2022-12-26T19:34:05.554Z,13.60
2022-12-26T19:36:07.670Z,13.50
2022-12-26T19:38:09.364Z,13.50
2022-12-26T19:40:11.802Z,13.50
2022-12-26T19:42:13.460Z,13.50
2022-12-26T19:44:15.204Z,13.40
2022-12-26T19:46:17.063Z,13.50
2022-12-26T19:48:18.772Z,13.50
2022-12-26T19:50:20.551Z,13.40
2022-12-26T19:52:22.283Z,13.40
2022-12-26T19:54:24.103Z,13.40
2022-12-26T19:56:27.196Z,13.40
2022-12-26T19:58:34.597Z,13.40
2022-12-26T20:00:47.686Z,13.30
2022-12-26T20:02:50.372Z,13.30
2022-12-26T20:04:53.315Z,13.30
2022-12-26T20:06:59.023Z,13.30
2022-12-26T20:09:01.996Z,13.30
2022-12-26T20:11:07.939Z,13.20
2022-12-26T20:13:09.647Z,13.20
2022-12-26T20:15:14.268Z,13.20
2022-12-26T20:17:15.975Z,13.20
2022-12-26T20:19:19.937Z,13.20
2022-12-26T20:21:23.684Z,13.20
2022-12-26T20:23:25.508Z,13.20
2022-12-26T20:25:28.988Z,13.20
2022-12-26T20:27:32.630Z,13.10
2022-12-26T20:29:34.408Z,13.10
2022-12-26T20:31:36.943Z,13.20
2022-12-26T20:33:40.211Z,13.10
2022-12-26T20:35:41.900Z,13.10
2022-12-26T20:37:43.713Z,13.10
2022-12-26T20:39:45.331Z,13.10
2022-12-26T20:41:47.105Z,13.10
2022-12-26T20:43:49.306Z,13.00
2022-12-26T20:45:51.181Z,13.00
2022-12-26T20:47:52.905Z,13.00
2022-12-26T20:49:54.692Z,13.00
2022-12-26T20:51:56.408Z,13.00
2022-12-26T20:53:58.865Z,13.00
2022-12-26T20:56:00.885Z,13.00
2022-12-26T20:58:02.925Z,12.90
2022-12-26T21:00:05.378Z,12.90
2022-12-26T21:02:07.166Z,12.90
2022-12-26T21:04:15.802Z,12.80
2022-12-26T21:06:19.228Z,12.80
2022-12-26T21:08:20.947Z,12.80
2022-12-26T21:10:22.641Z,12.80
2022-12-26T21:12:24.318Z,12.80
2022-12-26T21:14:26.115Z,12.80
2022-12-26T21:16:29.302Z,12.80
2022-12-26T21:18:31.027Z,12.70
2022-12-26T21:20:32.660Z,12.70
2022-12-26T21:22:34.323Z,12.70
2022-12-26T21:24:36.022Z,12.70
2022-12-26T21:26:38.985Z,12.60
2022-12-26T21:28:41.258Z,12.60
2022-12-26T21:30:45.949Z,12.60
2022-12-26T21:32:47.777Z,12.60
2022-12-26T21:34:49.447Z,12.60
2022-12-26T21:37:09.658Z,12.70
2022-12-26T21:39:12.163Z,12.60
2022-12-26T21:41:14.432Z,12.60
2022-12-26T21:43:16.627Z,12.50
2022-12-26T21:45:18.368Z,12.50
2022-12-26T21:47:20.113Z,12.60
2022-12-26T21:49:21.793Z,12.60
2022-12-26T21:51:26.756Z,12.70
2022-12-26T21:53:28.480Z,12.60
2022-12-26T21:55:31.225Z,12.50
2022-12-26T21:57:34.965Z,12.60
2022-12-26T21:59:55.173Z,12.70
2022-12-26T22:01:56.961Z,12.50
2022-12-26T22:04:17.472Z,12.50
2022-12-26T22:06:19.169Z,12.50
2022-12-26T22:08:21.156Z,12.40
2022-12-26T22:10:42.253Z,12.50
2022-12-26T22:12:58.803Z,12.30
2022-12-26T22:15:00.776Z,12.30
2022-12-26T22:17:02.439Z,12.30
2022-12-26T22:19:04.067Z,12.20
2022-12-26T22:21:07.945Z,12.20
2022-12-26T22:23:09.588Z,12.20
2022-12-26T22:25:11.290Z,12.20
2022-12-26T22:27:12.911Z,12.20
2022-12-26T22:29:14.590Z,12.10
2022-12-26T22:31:20.459Z,12.20
2022-12-26T22:33:22.267Z,12.10
2022-12-26T22:35:23.936Z,12.10
2022-12-26T22:37:25.590Z,12.10
2022-12-26T22:39:27.213Z,12.10
2022-12-26T22:41:29.050Z,12.10
2022-12-26T22:43:32.210Z,12.10
2022-12-26T22:45:33.859Z,12.00
2022-12-26T22:47:35.566Z,12.20
2022-12-26T22:49:37.285Z,12.00
2022-12-26T22:51:39.333Z,12.10
2022-12-26T22:53:42.358Z,12.00
2022-12-26T22:55:48.476Z,12.10
2022-12-26T22:57:52.694Z,11.90
2022-12-26T23:00:08.113Z,11.90
2022-12-26T23:02:10.373Z,11.90
2022-12-26T23:04:12.741Z,11.80
2022-12-26T23:06:23.415Z,11.80
2022-12-26T23:08:26.687Z,11.80
2022-12-26T23:10:28.643Z,11.70
2022-12-26T23:12:45.655Z,11.70
2022-12-26T23:14:47.381Z,11.70
2022-12-26T23:16:52.435Z,11.60
2022-12-26T23:19:15.513Z,11.70
2022-12-26T23:21:39.163Z,11.60
2022-12-26T23:23:40.958Z,11.50
2022-12-26T23:25:42.617Z,11.50
2022-12-26T23:28:02.845Z,11.60
2022-12-26T23:30:20.142Z,11.50
2022-12-26T23:32:21.787Z,11.40
2022-12-26T23:34:23.724Z,11.40
2022-12-26T23:36:25.348Z,11.40
2022-12-26T23:38:27.120Z,11.30
2022-12-26T23:40:28.748Z,11.30
2022-12-26T23:42:30.598Z,11.30
2022-12-26T23:44:32.231Z,11.30
2022-12-26T23:46:34.123Z,11.30
2022-12-26T23:48:35.775Z,11.20
2022-12-26T23:50:37.525Z,11.20
2022-12-26T23:52:39.323Z,11.20
2022-12-26T23:54:40.984Z,11.20
2022-12-26T23:56:42.626Z,11.30
2022-12-26T23:58:44.543Z,11.20
